• Join FlightAware (Why Join?)
  • Login
  • US Flag 
02:04AM EDT


 

Airport Tracker/Info


-or-


 

Live Flight TrackerFlight Track Log ✈ DAL268 ✈ 04-Sep-2013 ✈ KSFO - KJFK

Flight Track Log - Related Links

Times and Time Zones

All times are in EDT time to prevent confusion due to time zone crossing. See the DAL268 flight status page for this flight to view local times or setup timezone preferences in your user account.

Time Position Orientation Groundspeed Altitude Reporting Facility
EDT Latitude Longitude Course Direction KTS MPH feet Rate Location/Type
02:32PM 37.6130 -122.3770 58° Northeast 115 132  Level FlightAware
02:32PM 37.6320 -122.3640 28° Northeast 173 199 500 1,320 Climbing FlightAware ADS-B
02:32PM 37.6345 -122.3610 44° Northeast 176 203 700 2,100 Climbing FlightAware ADS-B
02:32PM 37.6400 -122.3530 49° Northeast 187 215 1,000 1,860 Climbing FlightAware ADS-B
02:32PM 37.6452 -122.3450 51° Northeast 199 229 1,300 1,920 Climbing FlightAware ADS-B
02:33PM 37.6551 -122.3300 50° Northeast 214 246 1,800 2,040 Climbing FlightAware ADS-B
02:33PM 37.6656 -122.3140 50° Northeast 227 261 2,400 2,220 Climbing FlightAware ADS-B
02:33PM 37.6786 -122.2930 52° Northeast 249 287 3,100 2,280 Climbing FlightAware ADS-B
02:33PM 37.6904 -122.2750 50° Northeast 266 306 3,700 2,700 Climbing FlightAware ADS-B
02:34PM 37.7084 -122.2490 49° Northeast 273 314 4,800 2,760 Climbing FlightAware ADS-B
02:34PM 37.7231 -122.2290 47° Northeast 282 325 5,500 2,580 Climbing FlightAware ADS-B
02:34PM 37.7366 -122.2110 47° Northeast 288 331 6,200 2,700 Climbing FlightAware ADS-B
02:35PM 37.7518 -122.1910 46° Northeast 297 342 6,900 2,580 Climbing FlightAware ADS-B
02:35PM 37.7673 -122.1700 47° Northeast 300 345 7,600 2,460 Climbing FlightAware ADS-B
02:35PM 37.7757 -122.1600 43° Northeast 310 357 7,900 2,340 Climbing FlightAware ADS-B
02:35PM 37.7925 -122.1420 40° Northeast 317 365 8,500 2,460 Climbing FlightAware ADS-B
02:36PM 37.8105 -122.1240 38° Northeast 319 367 9,200 2,580 Climbing FlightAware ADS-B
02:36PM 37.8470 -122.0910 36° Northeast 323 372 10,500 1,980 Climbing FlightAware ADS-B
02:37PM 37.8869 -122.0550 35° Northeast 356 410 11,200 1,260 Climbing FlightAware ADS-B
02:37PM 37.9300 -122.0160 36° Northeast 392 451 11,800 1,800 Climbing FlightAware ADS-B
02:38PM 38.0092 -121.9450 35° Northeast 406 467 13,700 2,040 Climbing FlightAware ADS-B
02:39PM 38.0820 -121.8800 35° Northeast 428 493 15,200 2,040 Climbing FlightAware
02:39PM 38.1330 -121.8340 35° Northeast 435 501 16,400 2,100 Climbing FlightAware
02:40PM 38.1970 -121.7760 35° Northeast 443 510 17,700 2,040 Climbing FlightAware
02:40PM 38.2500 -121.7280 35° Northeast 450 518 18,800 1,860 Climbing FlightAware
02:41PM 38.3130 -121.6700 36° Northeast 457 526 19,900 1,740 Climbing FlightAware
02:42PM 38.3750 -121.6150 35° Northeast 466 536 20,900 1,620 Climbing FlightAware
02:42PM 38.4320 -121.5590 38° Northeast 471 542 21,800 1,620 Climbing FlightAware
02:43PM 38.4820 -121.4860 49° Northeast 471 542 22,800 1,620 Climbing FlightAware
02:43PM 38.5310 -121.4020 53° Northeast 476 548 23,800 1,440 Climbing FlightAware
02:44PM 38.5740 -121.3280 53° Northeast 484 557 24,500 1,320 Climbing FlightAware
02:45PM 38.6230 -121.2440 53° Northeast 492 566 25,300 1,320 Climbing FlightAware
02:45PM 38.6710 -121.1620 53° Northeast 497 572 26,100 1,320 Climbing FlightAware
02:46PM 38.7220 -121.0730 54° Northeast 503 579 26,900 1,320 Climbing FlightAware
02:46PM 38.7660 -120.9970 53° Northeast 509 586 27,600 1,200 Climbing FlightAware
02:47PM 38.8160 -120.9100 54° Northeast 512 589 28,300 1,560 Climbing FlightAware
02:47PM 38.8670 -120.8220 53° Northeast 505 581 29,500 1,800 Climbing FlightAware
02:48PM 38.9180 -120.7340 53° Northeast 504 580 30,500 1,500 Climbing FlightAware
02:49PM 38.9600 -120.6600 54° Northeast 502 578 31,200 1,380 Climbing FlightAware
02:49PM 39.0090 -120.5760 53° Northeast 499 574 32,100 1,200 Climbing FlightAware
02:50PM 39.0570 -120.4920 54° Northeast 502 578 32,700 1,200 Climbing FlightAware
02:50PM 39.1030 -120.4120 53° Northeast 501 577 33,500 1,260 Climbing FlightAware
02:51PM 39.1550 -120.3220 53° Northeast 502 578 34,200 960 Climbing FlightAware
02:52PM 39.2040 -120.2350 54° Northeast 504 580 34,700 900 Climbing FlightAware
02:52PM 39.2480 -120.1580 54° Northeast 504 580 35,300 1,080 Climbing FlightAware
02:53PM 39.3000 -120.0660 54° Northeast 504 580 36,000 1,080 Climbing FlightAware
02:53PM 39.3490 -119.9790 54° Northeast 503 579 36,600 900 Climbing FlightAware
02:54PM 39.3930 -119.9020 54° Northeast 503 579 37,000 300 Climbing FlightAware
02:54PM 39.4440 -119.8110 54° Northeast 509 586 37,000  Level FlightAware
02:55PM 39.4950 -119.7210 54° Northeast 514 592 37,000  Level FlightAware
02:56PM 39.5390 -119.6410 54° Northeast 517 595 37,000  Level FlightAware
02:56PM 39.5910 -119.5490 54° Northeast 517 595 37,000  Level FlightAware
02:57PM 39.6430 -119.4560 54° Northeast 518 596 37,000  Level FlightAware
02:57PM 39.6880 -119.3750 54° Northeast 518 596 37,000  Level FlightAware
02:58PM 39.7390 -119.2840 54° Northeast 519 597 37,000  Level FlightAware
02:59PM 39.7890 -119.1920 55° Northeast 518 596 37,000  Level FlightAware
02:59PM 39.8340 -119.1110 54° Northeast 518 596 37,000  Level FlightAware
03:00PM 39.8870 -119.0140 55° Northeast 516 594 37,000  Level FlightAware
03:00PM 39.9360 -118.9250 54° Northeast 516 594 37,000  Level FlightAware
03:01PM 39.9800 -118.8440 55° Northeast 516 594 37,000  Level FlightAware
03:01PM 40.0340 -118.7460 54° Northeast 514 592 37,000  Level FlightAware
03:02PM 40.0760 -118.6670 55° Northeast 513 590 37,000  Level FlightAware
03:03PM 40.1170 -118.5850 57° Northeast 509 586 37,000  Level FlightAware
03:03PM 40.1520 -118.4820 66° East 504 580 37,000  Level FlightAware
03:04PM 40.1820 -118.3730 70° East 504 580 37,000  Level FlightAware
03:04PM 40.2100 -118.2700 70° East 503 579 37,000  Level FlightAware
03:05PM 40.2350 -118.1780 70° East 504 580 37,000  Level FlightAware
03:06PM 40.2690 -118.0540 70° East 504 580 37,000  Level FlightAware
03:06PM 40.2920 -117.9660 71° East 504 580 37,000  Level FlightAware
03:07PM 40.3220 -117.8590 70° East 503 579 37,000  Level FlightAware
03:07PM 40.3510 -117.7500 71° East 503 579 37,000  Level FlightAware
03:08PM 40.3790 -117.6480 70° East 503 579 37,000  Level FlightAware
03:09PM 40.4050 -117.5560 70° East 503 579 37,000  Level FlightAware
03:09PM 40.4290 -117.4680 70° East 503 579 37,000  Level FlightAware
03:10PM 40.4530 -117.3800 70° East 503 579 37,000  Level FlightAware
03:11PM 40.4780 -117.2920 69° East 503 579 37,000  Level FlightAware
03:11PM 40.5150 -117.1550 70° East 503 579 37,000  Level FlightAware
03:12PM 40.5400 -117.0670 69° East 503 579 37,000  Level FlightAware
03:13PM 40.5640 -116.9790 70° East 503 579 37,000  Level FlightAware
03:13PM 40.5880 -116.8910 70° East 503 579 37,000  Level FlightAware
03:14PM 40.6130 -116.8000 70° East 503 579 37,000  Level FlightAware
03:14PM 40.6380 -116.7120 69° East 503 579 37,000  Level FlightAware
03:15PM 40.6620 -116.6240 70° East 503 579 37,000  Level FlightAware
03:16PM 40.6860 -116.5350 70° East 503 579 37,000  Level FlightAware
03:16PM 40.7358 -116.3070 74° East 499 574 37,000  Level FlightAware ADS-B
03:16PM 40.7591 -116.2190 71° East 501 577 37,000  Level FlightAware ADS-B
03:17PM 40.7350 -116.3590 257° West 503 579 37,000  Level FlightAware
03:17PM 40.7907 -116.1000 74° East 502 578 37,000  Level FlightAware ADS-B
03:18PM 40.8220 -115.9820 71° East 504 580 37,000  Level FlightAware ADS-B
03:18PM 40.8539 -115.8610 71° East 504 580 37,000  Level FlightAware ADS-B
03:21PM 40.9743 -115.3820 71° East 502 578 37,000  Level FlightAware ADS-B
03:22PM 40.9930 -115.2930 74° East 500 575 37,000  Level FlightAware ADS-B
03:22PM 41.0116 -115.2050 74° East 498 573 37,000  Level FlightAware ADS-B
03:22PM 41.0246 -115.1450 74° East 498 573 37,000  Level FlightAware ADS-B
03:23PM 41.0412 -115.0770 72° East 500 575 37,000  Level FlightAware ADS-B
03:24PM 41.0830 -114.9330 69° East 502 578 37,000  Level FlightAware
03:24PM 41.0956 -114.8940 67° East 501 577 37,000  Level FlightAware ADS-B
03:25PM 41.1317 -114.7730 68° East 503 579 37,000  Level FlightAware ADS-B
03:25PM 41.1551 -114.6860 70° East 503 579 37,000  Level FlightAware ADS-B
03:26PM 41.1784 -114.5950 71° East 503 579 37,000  Level FlightAware ADS-B
03:26PM 41.2006 -114.5060 72° East 503 579 37,000  Level FlightAware ADS-B
03:27PM 41.2226 -114.4170 72° East 505 581 37,000  Level FlightAware ADS-B
03:27PM 41.2445 -114.3280 72° East 506 582 37,000  Level FlightAware ADS-B
03:28PM 41.2665 -114.2380 72° East 507 583 37,000  Level FlightAware ADS-B
03:28PM 41.2966 -114.1140 72° East 508 585 37,000  Level FlightAware ADS-B
03:29PM 41.3186 -114.0240 72° East 509 586 37,000  Level FlightAware ADS-B
03:29PM 41.3404 -113.9340 72° East 509 586 37,000  Level FlightAware ADS-B
03:30PM 41.3590 -113.8510 73° East 509 586 37,000  Level FlightAware ADS-B
03:30PM 41.3753 -113.7590 77° East 506 582 37,000  Level FlightAware ADS-B
03:31PM 41.3900 -113.6640 78° East 507 583 37,000  Level FlightAware ADS-B
03:31PM 41.4046 -113.5660 79° East 506 582 37,000  Level FlightAware ADS-B
03:32PM 41.4182 -113.4740 79° East 503 579 37,000  Level FlightAware ADS-B
03:33PM 41.4371 -113.3450 79° East 500 575 37,000  Level FlightAware ADS-B
03:33PM 41.4505 -113.2540 79° East 499 574 37,000  Level FlightAware ADS-B
03:34PM 41.4641 -113.1610 79° East 498 573 37,000  Level FlightAware ADS-B
03:34PM 41.4774 -113.0690 79° East 498 573 37,000  Level FlightAware ADS-B
03:35PM 41.4926 -112.9650 79° East 497 572 37,000  Level FlightAware ADS-B
03:35PM 41.5075 -112.8600 79° East 498 573 37,000  Level FlightAware ADS-B
03:36PM 41.5220 -112.7590 79° East 498 573 37,000  Level FlightAware ADS-B
03:36PM 41.5351 -112.6660 79° East 496 571 37,000  Level FlightAware ADS-B
03:37PM 41.5485 -112.5720 79° East 494 568 37,000  Level FlightAware ADS-B
03:37PM 41.5614 -112.4790 79° East 494 568 37,000  Level FlightAware ADS-B
03:38PM 41.5758 -112.3750 79° East 494 568 37,000  Level FlightAware ADS-B
03:39PM 41.5913 -112.2630 79° East 495 570 37,000  Level FlightAware ADS-B
03:39PM 41.6071 -112.1480 80° East 496 571 37,000  Level FlightAware ADS-B
03:40PM 41.6197 -112.0550 80° East 496 571 37,000  Level FlightAware ADS-B
03:41PM 41.6440 -111.8750 80° East 498 573 37,000  Level FlightAware ADS-B
03:41PM 41.6564 -111.7820 80° East 497 572 37,000  Level FlightAware ADS-B
03:42PM 41.6734 -111.6530 80° East 497 572 37,000  Level FlightAware ADS-B
03:43PM 41.6856 -111.5600 80° East 497 572 37,000  Level FlightAware ADS-B
03:43PM 41.6974 -111.4700 80° East 497 572 37,000  Level FlightAware ADS-B
03:44PM 41.7093 -111.3780 80° East 497 572 37,000  Level FlightAware ADS-B
03:44PM 41.7227 -111.2740 80° East 497 572 37,000  Level FlightAware ADS-B
03:45PM 41.7345 -111.1820 80° East 498 573 37,000  Level FlightAware ADS-B
03:45PM 41.7482 -111.0740 80° East 497 572 37,000  Level FlightAware ADS-B
03:46PM 41.7598 -110.9810 80° East 496 571 37,000  Level FlightAware ADS-B
03:46PM 41.7723 -110.8820 80° East 497 572 37,000  Level FlightAware ADS-B
03:47PM 41.7810 -110.8280 78° East 497 572 37,000  Level FlightAware
03:47PM 41.7985 -110.6700 81° East 498 573 37,000  Level FlightAware ADS-B
03:48PM 41.8050 -110.6420 73° East 497 572 37,000  Level FlightAware
03:49PM 41.8170 -110.5490 80° East 497 572 37,000  Level FlightAware
03:49PM 41.8290 -110.4560 80° East 497 572 37,000  Level FlightAware
03:50PM 41.8420 -110.3630 79° East 497 572 37,000  Level FlightAware
03:50PM 41.8540 -110.2680 80° East 497 572 37,000  Level FlightAware
03:51PM 41.8660 -110.1800 80° East 497 572 37,000  Level FlightAware
03:52PM 41.8780 -110.0840 80° East 497 572 37,000  Level FlightAware
03:52PM 41.8900 -109.9960 80° East 497 572 37,000  Level FlightAware
03:53PM 41.9020 -109.9030 80° East 497 572 37,000  Level FlightAware
03:53PM 41.9150 -109.8050 80° East 497 572 37,000  Level FlightAware
03:54PM 41.9270 -109.7120 80° East 497 572 37,000  Level FlightAware
03:55PM 41.9390 -109.6190 80° East 497 572 37,000  Level FlightAware
03:56PM 41.9722 -109.1789 80° East 502 578 37,000  Level Denver Center
03:57PM 41.9914 -109.0014 82° East 501 577 37,000  Level Denver Center
03:58PM 42.0106 -108.8239 82° East 500 575 37,000  Level Denver Center
03:59PM 42.0322 -108.6172 82° East 499 574 37,000  Level Denver Center
04:00PM 42.0506 -108.4403 82° East 499 574 37,000  Level Denver Center
04:01PM 42.0703 -108.2342 83° East 497 572 37,000  Level Denver Center
04:02PM 42.0869 -108.0569 83° East 498 573 37,000  Level Denver Center
04:03PM 42.1083 -107.8517 82° East 493 567 37,000  Level Denver Center
04:04PM 42.1239 -107.6742 83° East 500 575 37,000  Level Denver Center
04:05PM 42.1444 -107.4686 82° East 496 571 37,000  Level Denver Center
04:11PM 42.2400 -106.3900 82° East 495 570 37,000  Level FlightAware
04:11PM 42.2520 -106.2580 83° East 494 568 37,000  Level FlightAware
04:12PM 42.2640 -106.1150 83° East 495 570 37,000  Level FlightAware
04:13PM 42.2770 -105.9480 84° East 496 571 37,000  Level FlightAware
04:14PM 42.2850 -105.8530 83° East 496 571 37,000  Level FlightAware
04:14PM 42.2940 -105.7580 83° East 496 571 37,000  Level FlightAware
04:15PM 42.3020 -105.6640 83° East 496 571 37,000  Level FlightAware
04:16PM 42.3110 -105.5650 83° East 496 571 37,000  Level FlightAware
04:16PM 42.3190 -105.4010 86° East 497 572 37,000  Level FlightAware
04:17PM 42.3280 -105.2860 84° East 497 572 37,000  Level FlightAware
04:18PM 42.3380 -105.1460 84° East 498 573 37,000  Level FlightAware
04:18PM 42.3460 -105.0480 84° East 498 573 37,000  Level FlightAware
04:19PM 42.3530 -104.9560 84° East 498 573 37,000  Level FlightAware
04:19PM 42.3610 -104.8580 84° East 498 573 37,000  Level FlightAware
04:20PM 42.3680 -104.7630 84° East 498 573 37,000  Level FlightAware
04:21PM 42.3780 -104.5750 86° East 499 574 37,000  Level FlightAware
04:21PM 42.3870 -104.4550 84° East 499 574 37,000  Level FlightAware
04:22PM 42.3940 -104.3590 84° East 499 574 37,000  Level FlightAware
04:23PM 42.4020 -104.2640 83° East 499 574 37,000  Level FlightAware
04:23PM 42.4090 -104.1740 84° East 499 574 37,000  Level FlightAware
04:24PM 42.4160 -104.0850 84° East 499 574 37,000  Level FlightAware
04:24PM 42.4230 -103.9890 84° East 499 574 37,000  Level FlightAware
04:25PM 42.4300 -103.8940 84° East 499 574 37,000  Level FlightAware
04:25PM 42.4380 -103.7940 84° East 499 574 37,000  Level FlightAware
04:26PM 42.4460 -103.6990 83° East 499 574 37,000  Level FlightAware
04:27PM 42.4530 -103.6030 84° East 499 574 37,000  Level FlightAware
04:27PM 42.4600 -103.5080 84° East 499 574 37,000  Level FlightAware
04:28PM 42.4680 -103.4130 83° East 499 574 37,000  Level FlightAware
04:28PM 42.4750 -103.3150 84° East 499 574 37,000  Level FlightAware
04:29PM 42.4830 -103.2200 83° East 499 574 37,000  Level FlightAware
04:30PM 42.4900 -103.1300 84° East 499 574 37,000  Level FlightAware
04:30PM 42.4970 -103.0340 84° East 499 574 37,000  Level FlightAware
04:32PM 42.4967 -102.5767 84° East 495 570 37,000  Level Denver Center
04:33PM 42.5081 -102.3686 86° East 497 572 37,000  Level Denver Center
04:34PM 42.5167 -102.1614 87° East 496 571 37,000  Level Denver Center
04:35PM 42.5261 -101.9817 86° East 499 574 37,000  Level Denver Center
04:36PM 42.5339 -101.7397 87° East 500 575 37,000  Level Denver Center
04:37PM 42.5431 -101.5303 87° East 499 574 37,000  Level Denver Center
04:38PM 42.5519 -101.3486 86° East 503 579 37,000  Level Denver Center
04:39PM 42.5600 -101.1086 87° East 500 575 37,000  Level Denver Center
04:40PM 42.5667 -100.9328 87° East 491 565 37,000  Level Denver Center
04:41PM 42.5744 -100.7206 87° East 500 575 37,000  Level Denver Center
04:42PM 42.5806 -100.5408 87° East 501 577 37,000  Level Denver Center
04:43PM 42.5861 -100.3292 88° East 503 579 37,000  Level Denver Center
04:44PM 42.5908 -100.1486 88° East 503 579 37,000  Level Denver Center
04:45PM 42.5975 -99.9464 87° East 498 573 37,000  Level Denver Center
04:46PM 42.6033 -99.7586 88° East 498 573 37,000  Level Denver Center
04:48PM 42.6075 -99.5717 88° East 496 571 37,000  Level Denver Center
04:48PM 42.6086 -99.4986 89° East 497 572 37,000  Level Minneapolis Center
04:49PM 42.6133 -99.2708 88° East 500 575 37,000  Level Minneapolis Center
04:50PM 42.6153 -99.1931 88° East 499 574 37,000  Level Denver Center
04:50PM 42.6183 -99.0819 88° East 501 577 37,000  Level Minneapolis Center
04:51PM 42.6217 -98.8936 89° East 499 574 37,000  Level Minneapolis Center
04:52PM 42.6253 -98.7067 88° East 496 571 37,000  Level Minneapolis Center
04:58PM 42.6370 -97.6070 88° East 499 574 37,000  Level FlightAware
04:59PM 42.6380 -97.4810 89° East 498 573 37,000  Level FlightAware
04:59PM 42.6380 -97.3850 90° East 498 573 37,000  Level FlightAware
05:00PM 42.6390 -97.2960 89° East 498 573 37,000  Level FlightAware
05:00PM 42.6390 -97.1520 90° East 498 573 37,000  Level FlightAware
05:01PM 42.6390 -97.0510 90° East 498 573 37,000  Level FlightAware
05:02PM 42.6400 -96.9210 89° East 498 573 37,000  Level FlightAware
05:02PM 42.6400 -96.8190 90° East 499 574 37,000  Level FlightAware
05:03PM 42.6390 -96.6960 91° East 500 575 37,000  Level FlightAware
05:03PM 42.6390 -96.5880 90° East 500 575 37,000  Level FlightAware
05:04PM 42.6390 -96.4780 90° East 500 575 37,000  Level FlightAware
05:05PM 42.6390 -96.3650 90° East 501 577 37,000  Level FlightAware
05:05PM 42.6380 -96.2470 91° East 501 577 37,000  Level FlightAware
05:06PM 42.6370 -96.1180 91° East 501 577 37,000  Level FlightAware
05:06PM 42.6370 -96.0230 90° East 501 577 37,000  Level FlightAware
05:07PM 42.6370 -95.9260 90° East 501 577 37,000  Level FlightAware
05:08PM 42.6350 -95.7930 91° East 501 577 37,000  Level FlightAware
05:08PM 42.6340 -95.6650 91° East 502 578 37,000  Level FlightAware
05:09PM 42.6320 -95.5540 91° East 503 579 37,000  Level FlightAware
05:09PM 42.6310 -95.4480 91° East 503 579 37,000  Level FlightAware
05:10PM 42.6300 -95.3320 91° East 504 580 37,000  Level FlightAware
05:11PM 42.6280 -95.2270 91° East 504 580 37,000  Level FlightAware
05:11PM 42.6260 -95.1130 91° East 505 581 37,000  Level FlightAware
05:12PM 42.6250 -94.9990 91° East 506 582 37,000  Level FlightAware
05:12PM 42.6230 -94.8920 91° East 506 582 37,000  Level FlightAware
05:13PM 42.6210 -94.7830 91° East 506 582 37,000  Level FlightAware
05:13PM 42.6190 -94.6690 91° East 506 582 37,000  Level FlightAware
05:14PM 42.6170 -94.5540 91° East 506 582 37,000  Level FlightAware
05:15PM 42.6150 -94.4490 91° East 507 583 37,000  Level FlightAware
05:15PM 42.6120 -94.3350 92° East 507 583 37,000  Level FlightAware
05:16PM 42.6110 -94.2400 91° East 506 582 37,000  Level FlightAware
05:16PM 42.6120 -94.1120 89° East 505 581 37,000  Level FlightAware
05:17PM 42.6140 -94.0110 88° East 506 582 37,000  Level FlightAware
05:18PM 42.6150 -93.8970 89° East 506 582 37,000  Level FlightAware
05:18PM 42.6160 -93.7880 89° East 507 583 37,000  Level FlightAware
05:19PM 42.6160 -93.6740 90° East 508 585 37,000  Level FlightAware
05:19PM 42.6160 -93.5600 90° East 508 585 37,000  Level FlightAware
05:20PM 42.6160 -93.4500 90° East 508 585 37,000  Level FlightAware
05:20PM 42.6170 -93.3510 89° East 507 583 37,000  Level FlightAware
05:21PM 42.6170 -93.2000 90° East 506 582 37,000  Level FlightAware
05:22PM 42.6170 -93.0780 90° East 505 581 37,000  Level FlightAware
05:22PM 42.6170 -92.9620 90° East 504 580 37,000  Level FlightAware
05:23PM 42.6160 -92.8490 91° East 504 580 37,000  Level FlightAware
05:24PM 42.6160 -92.7440 90° East 505 581 37,000  Level FlightAware
05:24PM 42.6160 -92.6420 90° East 505 581 37,000  Level FlightAware
05:25PM 42.6150 -92.5110 91° East 504 580 37,000  Level FlightAware
05:25PM 42.6140 -92.4090 91° East 504 580 37,000  Level FlightAware
05:26PM 42.6130 -92.3000 91° East 505 581 37,000  Level FlightAware
05:27PM 42.6120 -92.1840 91° East 509 586 37,000  Level FlightAware
05:27PM 42.6120 -92.0830 90° East 512 589 37,000  Level FlightAware
05:28PM 42.6100 -91.9680 91° East 514 592 37,000  Level FlightAware
05:28PM 42.6090 -91.8510 91° East 513 590 37,000  Level FlightAware
05:29PM 42.6080 -91.7500 91° East 512 589 37,000  Level FlightAware
05:29PM 42.6060 -91.6330 91° East 512 589 37,000  Level FlightAware
05:30PM 42.6050 -91.5130 91° East 514 592 37,000  Level FlightAware
05:31PM 42.6030 -91.3960 91° East 516 594 37,000  Level FlightAware
05:31PM 42.6010 -91.2920 91° East 517 595 37,000  Level FlightAware
05:32PM 42.5990 -91.1710 91° East 517 595 37,000  Level FlightAware
05:32PM 42.5970 -91.0610 91° East 517 595 37,000  Level FlightAware
05:33PM 42.5950 -90.9410 91° East 518 596 37,000  Level FlightAware
05:34PM 42.5930 -90.8370 91° East 518 596 37,000 600 Level FlightAware
05:34PM 42.5910 -90.7230 91° East 515 593 37,700 960 Climbing FlightAware
05:35PM 42.5880 -90.6180 92° East 516 594 38,100 840 Climbing FlightAware
05:35PM 42.5860 -90.4950 91° East 516 594 38,700 720 Climbing FlightAware
05:36PM 42.5830 -90.3800 92° East 517 595 39,000 240 Climbing FlightAware
05:36PM 42.5800 -90.2650 92° East 516 594 39,000  Level FlightAware
05:37PM 42.5770 -90.1550 92° East 517 595 39,000  Level FlightAware
05:38PM 42.5740 -90.0380 92° East 518 596 39,000  Level FlightAware
05:38PM 42.5710 -89.9250 92° East 520 598 39,000  Level FlightAware
05:39PM 42.5680 -89.8240 92° East 520 598 39,000  Level FlightAware
05:39PM 42.5640 -89.7000 92° East 521 600 39,000  Level FlightAware
05:40PM 42.5610 -89.5870 92° East 522 601 39,000  Level FlightAware
05:41PM 42.5570 -89.4670 93° East 523 602 39,000  Level FlightAware
05:41PM 42.5530 -89.3610 93° East 524 603 39,000  Level FlightAware
05:42PM 42.5500 -89.2470 92° East 525 604 39,000  Level FlightAware
05:42PM 42.5450 -89.1240 93° East 525 604 39,000  Level FlightAware
05:43PM 42.5410 -89.0170 93° East 525 604 39,000  Level FlightAware
05:43PM 42.5370 -88.9000 93° East 526 605 39,000  Level FlightAware
05:44PM 42.5320 -88.7770 93° East 526 605 39,000  Level FlightAware
05:45PM 42.5280 -88.6700 93° East 527 606 39,000  Level FlightAware
05:45PM 42.5230 -88.5480 93° East 527 606 39,000  Level FlightAware
05:46PM 42.5190 -88.4360 93° East 526 605 39,000  Level FlightAware
05:46PM 42.5140 -88.3320 94° East 525 604 39,000  Level FlightAware
05:47PM 42.5090 -88.2070 93° East 525 604 39,000  Level FlightAware
05:48PM 42.5040 -88.0910 93° East 525 604 39,000  Level FlightAware
05:48PM 42.5010 -87.9820 92° East 524 603 39,000  Level FlightAware
05:49PM 42.5000 -87.8680 91° East 523 602 39,000  Level FlightAware
05:49PM 42.5000 -87.7540 90° East 522 601 39,000  Level FlightAware
05:50PM 42.4990 -87.6380 91° East 522 601 39,000  Level FlightAware
05:50PM 42.4990 -87.5230 90° East 520 598 39,000  Level FlightAware
05:51PM 42.4990 -87.4060 90° East 519 597 39,000  Level FlightAware
05:52PM 42.4980 -87.2990 91° East 519 597 39,000  Level FlightAware
05:52PM 42.4970 -87.1830 91° East 519 597 39,000  Level FlightAware
05:53PM 42.4970 -87.0820 90° East 520 598 39,000  Level FlightAware
05:53PM 42.4960 -86.9750 91° East 520 598 39,000  Level FlightAware
05:54PM 42.4950 -86.8540 91° East 520 598 39,000  Level FlightAware
05:55PM 42.4930 -86.7310 91° East 518 596 39,000  Level FlightAware
05:55PM 42.4920 -86.6230 91° East 516 594 39,000  Level FlightAware
05:56PM 42.4910 -86.5100 91° East 515 593 39,000  Level FlightAware
05:56PM 42.4890 -86.3860 91° East 515 593 39,000  Level FlightAware
05:57PM 42.4880 -86.2800 91° East 514 592 39,000  Level FlightAware
05:57PM 42.4860 -86.1700 91° East 513 590 39,000  Level FlightAware
05:58PM 42.4840 -86.0520 91° East 513 590 39,000  Level FlightAware
05:59PM 42.4820 -85.9460 91° East 513 590 39,000  Level FlightAware
05:59PM 42.4800 -85.8210 91° East 512 589 39,000  Level FlightAware
06:00PM 42.4780 -85.7190 91° East 512 589 39,000  Level FlightAware
06:00PM 42.4760 -85.6030 91° East 512 589 39,000  Level FlightAware
06:01PM 42.4730 -85.4910 92° East 512 589 39,000  Level FlightAware
06:02PM 42.4710 -85.3860 91° East 513 590 39,000  Level FlightAware
06:02PM 42.4680 -85.2700 92° East 514 592 39,000  Level FlightAware
06:03PM 42.4660 -85.1550 91° East 515 593 39,000  Level FlightAware
06:03PM 42.4620 -85.0230 92° East 516 594 39,000  Level FlightAware
06:04PM 42.4590 -84.9090 92° East 515 593 39,000  Level FlightAware
06:05PM 42.4560 -84.8010 92° East 515 593 39,000  Level FlightAware
06:05PM 42.4530 -84.6970 92° East 516 594 39,000  Level FlightAware
06:06PM 42.4500 -84.5760 92° East 516 594 39,000  Level FlightAware
06:06PM 42.4460 -84.4580 93° East 516 594 39,000  Level FlightAware
06:07PM 42.4430 -84.3440 92° East 516 594 39,000  Level FlightAware
06:08PM 42.4390 -84.2300 93° East 515 593 39,000  Level FlightAware
06:08PM 42.4360 -84.1300 92° East 515 593 39,000  Level FlightAware
06:09PM 42.4320 -84.0130 93° East 514 592 39,000  Level FlightAware
06:09PM 42.4280 -83.9020 93° East 513 590 39,000  Level FlightAware
06:10PM 42.4240 -83.7860 93° East 513 590 39,000  Level FlightAware
06:10PM 42.4200 -83.6720 93° East 514 592 39,000  Level FlightAware
06:11PM 42.4150 -83.5600 93° East 514 592 39,000  Level FlightAware
06:12PM 42.4110 -83.4440 93° East 513 590 39,000  Level FlightAware
06:12PM 42.4060 -83.3270 93° East 513 590 39,000  Level FlightAware
06:13PM 42.4020 -83.2280 93° East 513 590 39,000  Level FlightAware
06:13PM 42.3970 -83.1160 93° East 513 590 39,000  Level FlightAware
06:14PM 42.3920 -82.9920 93° East 512 589 39,000  Level FlightAware
06:14PM 42.3870 -82.8870 94° East 511 588 39,000  Level FlightAware
06:15PM 42.3820 -82.7750 93° East 510 587 39,000  Level FlightAware
06:16PM 42.3770 -82.6600 93° East 510 587 39,000  Level FlightAware
06:16PM 42.3730 -82.5630 93° East 510 587 39,000  Level FlightAware
06:17PM 42.3690 -82.4450 93° East 510 587 39,000  Level FlightAware
06:17PM 42.3640 -82.3280 93° East 510 587 39,000  Level FlightAware
06:18PM 42.3590 -82.2060 93° East 509 586 39,000  Level FlightAware
06:18PM 42.3560 -82.1300 93° East 508 585 39,000  Level FlightAware
06:19PM 42.3510 -82.0170 93° East 508 585 39,000  Level FlightAware
06:20PM 42.3470 -81.9100 93° East 507 583 39,000  Level FlightAware
06:20PM 42.3420 -81.8020 94° East 508 585 39,000  Level FlightAware
06:21PM 42.3360 -81.6790 94° East 508 585 39,000  Level FlightAware
06:21PM 42.3320 -81.5880 93° East 506 582 39,000  Level FlightAware
06:22PM 42.3260 -81.4680 94° East 506 582 39,000  Level FlightAware
06:23PM 42.3200 -81.3450 94° East 505 581 39,000  Level FlightAware
06:23PM 42.3150 -81.2550 94° East 505 581 39,000  Level FlightAware
06:24PM 42.3090 -81.1330 94° East 504 580 39,000  Level FlightAware
06:24PM 42.3040 -81.0290 94° East 505 581 39,000  Level FlightAware
06:25PM 42.2980 -80.9080 94° East 505 581 39,000  Level FlightAware
06:26PM 42.2900 -80.7720 95° East 506 582 39,000  Level FlightAware
06:26PM 42.2850 -80.6730 94° East 506 582 39,000  Level FlightAware
06:27PM 42.2770 -80.5390 95° East 506 582 39,000  Level FlightAware
06:27PM 42.2720 -80.4420 94° East 506 582 39,000  Level FlightAware
06:28PM 42.2660 -80.3350 94° East 506 582 39,000  Level FlightAware
06:29PM 42.2590 -80.2240 95° East 506 582 39,000  Level FlightAware
06:29PM 42.2530 -80.1160 94° East 507 583 39,000  Level FlightAware
06:30PM 42.2470 -80.0120 94° East 507 583 39,000  Level FlightAware
06:30PM 42.2390 -79.8960 95° East 508 585 39,000  Level FlightAware
06:31PM 42.2320 -79.7820 95° East 507 583 39,000  Level FlightAware
06:32PM 42.2250 -79.6740 95° East 506 582 39,000  Level FlightAware
06:32PM 42.2170 -79.5500 95° East 506 582 39,000  Level FlightAware
06:33PM 42.2110 -79.4530 95° East 509 586 39,000  Level FlightAware
06:33PM 42.2050 -79.3550 95° East 509 586 39,000  Level FlightAware
06:34PM 42.1960 -79.2340 96° East 510 587 39,000  Level FlightAware
06:35PM 42.1820 -79.1070 98° East 514 592 39,000  Level FlightAware
06:35PM 42.1560 -78.9880 106° East 516 594 39,000  Level FlightAware
06:36PM 42.1290 -78.8780 108° East 517 595 39,000  Level FlightAware
06:36PM 42.1010 -78.7700 109° East 518 596 39,000  Level FlightAware
06:37PM 42.0710 -78.6500 109° East 520 598 39,000  Level FlightAware
06:38PM 42.0430 -78.5420 109° East 521 600 39,000  Level FlightAware
06:38PM 42.0150 -78.4330 109° East 518 596 39,000  Level FlightAware
06:39PM 41.9860 -78.3180 109° East 518 596 39,000  Level FlightAware
06:39PM 41.9610 -78.2210 109° East 514 592 39,000  Level FlightAware
06:40PM 41.9330 -78.1130 109° East 513 590 39,000  Level FlightAware
06:41PM 41.9030 -77.9970 109° East 512 589 39,000  Level FlightAware
06:41PM 41.8750 -77.8920 110° East 510 587 39,000  Level FlightAware
06:42PM 41.8510 -77.7970 109° East 509 586 39,000  Level FlightAware
06:42PM 41.8220 -77.6900 110° East 511 588 39,000  Level FlightAware
06:43PM 41.7950 -77.5860 109° East 513 590 39,000  Level FlightAware
06:43PM 41.7670 -77.4800 109° East 515 593 39,000  Level FlightAware
06:44PM 41.7390 -77.3770 110° East 517 595 39,000  Level FlightAware
06:45PM 41.7100 -77.2690 110° East 518 596 39,000  Level FlightAware
06:45PM 41.6800 -77.1570 110° East 516 594 39,000  Level FlightAware
06:46PM 41.6540 -77.0590 110° East 515 593 39,000  Level FlightAware
06:46PM 41.6240 -76.9500 110° East 515 593 39,000  Level FlightAware
06:47PM 41.5990 -76.8580 110° East 514 592 39,000  Level FlightAware
06:48PM 41.5690 -76.7490 110° East 514 592 39,000  Level FlightAware
06:48PM 41.5400 -76.6400 110° East 514 592 39,000  Level FlightAware
06:49PM 41.5120 -76.5410 111° Southeast 513 590 39,000  Level FlightAware
06:49PM 41.4830 -76.4360 110° East 512 589 39,000 -300 Level FlightAware
06:50PM 41.4540 -76.3320 110° East 510 587 38,700 -720 Descending FlightAware
06:51PM 41.4210 -76.2120 110° East 504 580 38,100 -1,680 Descending FlightAware
06:51PM 41.3930 -76.1130 111° Southeast 505 581 36,600 -2,820 Descending FlightAware
06:52PM 41.3630 -76.0060 110° East 507 583 34,800 -3,120 Descending FlightAware
06:52PM 41.3360 -75.9130 111° Southeast 507 583 33,100 -3,420 Descending FlightAware
06:53PM 41.3070 -75.8090 110° East 508 585 31,000 -3,360 Descending FlightAware
06:53PM 41.2770 -75.7070 111° Southeast 507 583 29,100 -3,000 Descending FlightAware
06:54PM 41.2500 -75.6200 112° Southeast 495 570 27,700 -2,760 Descending FlightAware
06:55PM 41.2120 -75.5060 114° Southeast 483 556 25,900 -2,760 Descending FlightAware
06:55PM 41.1820 -75.4170 114° Southeast 474 545 24,400 -2,400 Descending FlightAware
06:56PM 41.1510 -75.3240 114° Southeast 464 534 23,200 -1,380 Descending FlightAware
06:56PM 41.1200 -75.2340 115° Southeast 463 533 22,800 -1,380 Descending FlightAware
06:57PM 41.0890 -75.1420 114° Southeast 475 547 21,600 -1,980 Descending FlightAware
06:58PM 41.0590 -75.0530 114° Southeast 471 542 20,500 -1,320 Descending FlightAware
06:58PM 41.0240 -74.9500 114° Southeast 468 539 20,000 -480 Descending FlightAware
06:59PM 40.9980 -74.8620 111° Southeast 471 542 20,000 -180 Level FlightAware
06:59PM 40.9840 -74.7610 100° East 465 535 19,800 -360 Descending FlightAware
07:00PM 40.9713 -74.6454 98° East 458 527 19,600 -420 Descending FlightAware ADS-B
07:01PM 40.9540 -74.4850 98° East 451 519 19,100 -360 Descending FlightAware
07:02PM 40.9420 -74.3750 98° East 431 496 19,000 -120 Descending FlightAware
07:02PM 40.9322 -74.2868 98° East 405 466 19,000  Level FlightAware ADS-B
07:03PM 40.9230 -74.2100 99° East 366 421 19,000  Level FlightAware
07:03PM 40.9160 -74.1800 107° East 357 411 19,000  Level FlightAware
07:03PM 40.9094 -74.1634 118° Southeast 354 407 19,000  Level FlightAware ADS-B
07:03PM 40.9048 -74.1550 126° Southeast 352 405 19,000  Level FlightAware ADS-B
07:03PM 40.9016 -74.1502 131° Southeast 351 404 19,000  Level FlightAware ADS-B
07:03PM 40.8945 -74.1411 136° Southeast 349 402 19,000  Level FlightAware ADS-B
07:03PM 40.8893 -74.1356 141° Southeast 348 400 19,000 -660 Level FlightAware ADS-B
07:04PM 40.8700 -74.1201 149° Southeast 345 397 18,800 -1,080 Descending FlightAware ADS-B
07:04PM 40.8274 -74.0905 152° Southeast 339 390 18,200 -1,620 Descending FlightAware ADS-B
07:05PM 40.7846 -74.0607 152° Southeast 341 392 17,200 -1,800 Descending FlightAware ADS-B
07:05PM 40.7301 -74.0222 152° Southeast 343 395 16,100 -1,500 Descending FlightAware ADS-B
07:06PM 40.6835 -73.9892 152° Southeast 340 391 15,400 -1,380 Descending FlightAware ADS-B
07:07PM 40.6290 -73.9510 152° Southeast 325 374 14,400 -1,440 Descending FlightAware
07:07PM 40.5820 -73.9190 153° Southeast 318 366 13,600 -1,260 Descending FlightAware
07:08PM 40.5320 -73.8880 155° Southeast 322 371 12,900 -1,380 Descending FlightAware
07:08PM 40.4880 -73.8700 163° South 318 366 12,100 -1,440 Descending FlightAware
07:09PM 40.4380 -73.8480 161° South 318 366 11,300 -1,440 Descending FlightAware
07:10PM 40.3950 -73.8090 145° Southeast 312 359 10,400 -1,440 Descending FlightAware
07:10PM 40.3730 -73.7830 138° Southeast 313 360 10,000 -1,200 Descending FlightAware
07:10PM 40.3690 -73.7740 120° Southeast 312 359 9,900 -1,440 Descending FlightAware
07:10PM 40.3640 -73.7540 108° East 308 354 9,600 -720 Descending FlightAware
07:11PM 40.3610 -73.6980 94° East 306 352 9,400 -1,320 Descending FlightAware
07:11PM 40.3750 -73.6850 35° Northeast 300 345 8,700 -2,700 Descending FlightAware
07:11PM 40.3860 -73.6470 69° East 298 343 8,200 -1,200 Descending FlightAware
07:12PM 40.3960 -73.6140 68° East 295 339 7,900 -900 Descending FlightAware
07:12PM 40.4070 -73.5930 55° Northeast 288 331 7,700 -900 Descending FlightAware
07:12PM 40.4130 -73.5870 37° Northeast 286 329 7,600 -1,080 Descending FlightAware
07:12PM 40.4380 -73.5670 31° Northeast 279 321 7,200 -1,080 Descending FlightAware
07:12PM 40.4520 -73.5570 29° Northeast 278 320 7,000 -420 Descending FlightAware
07:13PM 40.4740 -73.5400 30° Northeast 277 319 7,000  Level FlightAware
07:13PM 40.5010 -73.5210 28° Northeast 277 319 7,000 -420 Level FlightAware
07:14PM 40.5220 -73.5060 28° Northeast 275 316 6,700 -1,080 Descending FlightAware
07:14PM 40.5480 -73.4870 29° Northeast 272 313 6,300 -1,320 Descending FlightAware
07:14PM 40.5700 -73.4720 27° Northeast 271 312 5,800 -1,380 Descending FlightAware
07:14PM 40.5870 -73.4600 28° Northeast 270 311 5,500 -1,380 Descending FlightAware
07:15PM 40.6090 -73.4450 27° Northeast 270 311 5,000 -900 Descending FlightAware
07:15PM 40.6300 -73.4300 28° Northeast 257 296 4,900  Descending FlightAware
07:15PM 40.6500 -73.4160 28° Northeast 238 274 5,000 120 Climbing FlightAware
07:16PM 40.6720 -73.3990 30° Northeast 222 255 5,000  Level FlightAware
07:16PM 40.6840 -73.3910 27° Northeast 218 251 5,000 -300 Level FlightAware
07:16PM 40.6930 -73.3890 10° North 213 245 4,900 -600 Descending FlightAware
07:16PM 40.7020 -73.3890 360° North 211 243 4,800 -960 Descending FlightAware
07:17PM 40.7110 -73.3890 360° North 212 244 4,600 -1,320 Descending FlightAware
07:17PM 40.7310 -73.3890 360° North 216 249 4,200 -900 Descending FlightAware
07:17PM 40.7530 -73.3890 360° North 220 253 4,000 -300 Descending FlightAware
07:18PM 40.7700 -73.3890 360° North 222 255 4,000  Level FlightAware
07:18PM 40.7950 -73.3890 360° North 223 257 4,000 -180 Level FlightAware
07:18PM 40.8090 -73.3930 348° North 218 251 3,900 -300 Descending FlightAware
07:18PM 40.8130 -73.3960 330° Northwest 213 245 3,900 -420 Level FlightAware
07:18PM 40.8200 -73.4060 313° West 210 242 3,800 -960 Descending FlightAware
07:19PM 40.8260 -73.4200 300° West 207 238 3,500 -1,020 Descending FlightAware
07:19PM 40.8330 -73.4390 296° West 206 237 3,300 -900 Descending FlightAware
07:19PM 40.8440 -73.4690 296° West 205 236 2,900 -840 Descending FlightAware
07:20PM 40.8510 -73.4890 295° West 203 234 2,700 -840 Descending FlightAware
07:20PM 40.8610 -73.5140 298° West 203 234 2,300 -540 Descending FlightAware
07:21PM 40.8760 -73.5500 299° West 203 234 2,200 -480 Descending FlightAware
07:21PM 40.8630 -73.5610 213° Southwest 181 208 2,000 -480 Descending FlightAware
07:21PM 40.8550 -73.5820 243° Southwest 171 197 2,000  Level FlightAware
07:22PM 40.8470 -73.6010 241° Southwest 171 197 2,000  Level FlightAware
07:22PM 40.8630 -73.5600 63° Northeast 176 203 2,000  Level FlightAware
07:22PM 40.8490 -73.5770 223° Southwest 176 203 2,000  Level FlightAware
07:22PM 40.8060 -73.6290 222° Southwest 177 204 2,000  Level FlightAware
07:23PM 40.7970 -73.6360 210° Southwest 177 204 2,000  Level FlightAware
07:23PM 40.7800 -73.6490 210° Southwest 179 206 2,000  Level FlightAware
07:23PM 40.7640 -73.6620 212° Southwest 181 208 2,000  Level FlightAware
07:24PM 40.7540 -73.6690 208° Southwest 181 208 2,000  Level FlightAware
07:24PM 40.7400 -73.6810 213° Southwest 179 206 2,000 -420 Level FlightAware
07:24PM 40.7240 -73.6940 212° Southwest 181 208 1,700 -720 Descending FlightAware
07:25PM 40.7110 -73.7040 210° Southwest 165 190 1,500 -780 Descending FlightAware
07:25PM 40.6980 -73.7130 208° Southwest 145 167 1,200 -840 Descending FlightAware
07:25PM 40.6890 -73.7210 214° Southwest 132 152 1,000 -720 Descending FlightAware
07:26PM 40.6790 -73.7290 211° Southwest 132 152 800 -780 Descending FlightAware
07:26PM 40.6680 -73.7370 209° Southwest 132 152 500 -780 Descending FlightAware
07:26PM 40.6580 -73.7450 211° Southwest 132 152 300 -660 Descending FlightAware
07:27PM 40.6490 -73.7520 211° Southwest 129 148 100 -720 Descending FlightAware
07:27PM 40.6400 -73.7590 211° Southwest 129 148 -360 Descending FlightAware